sensor_id;sensor_type;location;lat;lon;timestamp;pressure;altitude;pressure_sealevel;temperature;humidity
43155;BME280;34212;51.018;13.586;2022-08-21T00:03:40;97816.78;;;20.11;81.73
43155;BME280;34212;51.018;13.586;2022-08-21T00:08:41;97810.56;;;20.11;81.77
43155;BME280;34212;51.018;13.586;2022-08-21T00:13:43;97816.19;;;20.09;82.07
43155;BME280;34212;51.018;13.586;2022-08-21T00:18:45;97814.56;;;20.08;81.95
43155;BME280;34212;51.018;13.586;2022-08-21T00:23:46;97813.97;;;20.06;81.83
43155;BME280;34212;51.018;13.586;2022-08-21T00:28:48;97814.22;;;20.04;81.90
43155;BME280;34212;51.018;13.586;2022-08-21T00:33:50;97806.31;;;20.03;82.11
43155;BME280;34212;51.018;13.586;2022-08-21T00:38:51;97809.50;;;20.00;82.02
43155;BME280;34212;51.018;13.586;2022-08-21T00:43:53;97804.09;;;20.00;81.97
43155;BME280;34212;51.018;13.586;2022-08-21T00:48:56;97812.22;;;20.00;82.30
43155;BME280;34212;51.018;13.586;2022-08-21T00:53:59;97811.75;;;20.03;82.24
43155;BME280;34212;51.018;13.586;2022-08-21T00:59:03;97814.22;;;20.04;82.10
43155;BME280;34212;51.018;13.586;2022-08-21T01:04:06;97822.09;;;20.06;82.14
43155;BME280;34212;51.018;13.586;2022-08-21T01:09:08;97822.09;;;20.06;82.11
43155;BME280;34212;51.018;13.586;2022-08-21T01:14:10;97815.38;;;20.08;82.16
43155;BME280;34212;51.018;13.586;2022-08-21T01:19:14;97815.72;;;20.12;82.37
43155;BME280;34212;51.018;13.586;2022-08-21T01:24:16;97816.56;;;20.13;82.37
43155;BME280;34212;51.018;13.586;2022-08-21T01:34:40;97831.34;;;19.81;82.18
43155;BME280;34212;51.018;13.586;2022-08-21T01:39:42;97836.28;;;19.61;81.72
43155;BME280;34212;51.018;13.586;2022-08-21T01:44:44;97832.75;;;19.49;82.36
43155;BME280;34212;51.018;13.586;2022-08-21T01:49:45;97844.06;;;19.46;82.45
43155;BME280;34212;51.018;13.586;2022-08-21T01:54:47;97836.19;;;19.44;82.25
43155;BME280;34212;51.018;13.586;2022-08-21T01:59:55;97843.84;;;19.47;82.54
43155;BME280;34212;51.018;13.586;2022-08-21T02:04:57;97840.53;;;19.57;82.62
43155;BME280;34212;51.018;13.586;2022-08-21T02:09:58;97834.19;;;19.63;82.43
43155;BME280;34212;51.018;13.586;2022-08-21T02:15:00;97836.19;;;19.68;82.24
43155;BME280;34212;51.018;13.586;2022-08-21T02:20:02;97829.97;;;19.67;82.27
43155;BME280;34212;51.018;13.586;2022-08-21T02:25:04;97832.78;;;19.72;82.32
43155;BME280;34212;51.018;13.586;2022-08-21T02:30:07;97833.94;;;19.76;82.26
43155;BME280;34212;51.018;13.586;2022-08-21T02:35:09;97826.16;;;19.80;82.25
43155;BME280;34212;51.018;13.586;2022-08-21T02:40:11;97824.88;;;19.82;82.09
43155;BME280;34212;51.018;13.586;2022-08-21T02:45:13;97822.75;;;19.84;81.87
43155;BME280;34212;51.018;13.586;2022-08-21T02:50:17;97815.22;;;19.87;82.07
43155;BME280;34212;51.018;13.586;2022-08-21T02:55:19;97815.78;;;19.89;81.95
43155;BME280;34212;51.018;13.586;2022-08-21T03:00:22;97800.63;;;19.88;81.85
43155;BME280;34212;51.018;13.586;2022-08-21T03:05:26;97804.16;;;19.88;81.92
43155;BME280;34212;51.018;13.586;2022-08-21T03:10:28;97797.06;;;19.87;81.83
43155;BME280;34212;51.018;13.586;2022-08-21T03:15:30;97798.97;;;19.87;82.01
43155;BME280;34212;51.018;13.586;2022-08-21T03:20:33;97809.78;;;19.87;81.81
43155;BME280;34212;51.018;13.586;2022-08-21T03:25:35;97815.94;;;19.82;81.70
43155;BME280;34212;51.018;13.586;2022-08-21T03:30:41;97818.03;;;19.80;81.67
43155;BME280;34212;51.018;13.586;2022-08-21T03:35:44;97819.94;;;19.79;81.95
43155;BME280;34212;51.018;13.586;2022-08-21T03:40:47;97825.94;;;19.81;82.07
43155;BME280;34212;51.018;13.586;2022-08-21T03:45:48;97826.75;;;19.82;82.16
43155;BME280;34212;51.018;13.586;2022-08-21T03:50:51;97827.56;;;19.82;82.36
43155;BME280;34212;51.018;13.586;2022-08-21T03:55:53;97829.22;;;19.83;82.27
43155;BME280;34212;51.018;13.586;2022-08-21T04:00:55;97836.28;;;19.84;82.36
43155;BME280;34212;51.018;13.586;2022-08-21T04:05:57;97832.25;;;19.87;82.69
43155;BME280;34212;51.018;13.586;2022-08-21T04:10:59;97832.63;;;19.91;82.93
43155;BME280;34212;51.018;13.586;2022-08-21T04:16:01;97835.91;;;19.93;82.90
43155;BME280;34212;51.018;13.586;2022-08-21T04:21:03;97840.75;;;19.91;82.94
43155;BME280;34212;51.018;13.586;2022-08-21T04:26:05;97846.16;;;19.91;82.85
43155;BME280;34212;51.018;13.586;2022-08-21T04:31:08;97844.50;;;19.90;83.12
43155;BME280;34212;51.018;13.586;2022-08-21T04:36:10;97846.16;;;19.91;83.38
43155;BME280;34212;51.018;13.586;2022-08-21T04:41:11;97850.25;;;19.93;83.31
43155;BME280;34212;51.018;13.586;2022-08-21T04:46:13;97860.38;;;19.98;83.33
43155;BME280;34212;51.018;13.586;2022-08-21T04:51:16;97853.66;;;20.00;83.15
43155;BME280;34212;51.018;13.586;2022-08-21T04:56:19;97856.72;;;20.04;83.21
43155;BME280;34212;51.018;13.586;2022-08-21T05:01:22;97844.94;;;20.10;83.42
43155;BME280;34212;51.018;13.586;2022-08-21T05:06:25;97850.91;;;20.12;83.12
43155;BME280;34212;51.018;13.586;2022-08-21T05:11:27;97856.69;;;20.16;83.43
43155;BME280;34212;51.018;13.586;2022-08-21T05:16:29;97861.38;;;20.20;83.30
43155;BME280;34212;51.018;13.586;2022-08-21T05:21:39;97863.84;;;20.22;83.24
43155;BME280;34212;51.018;13.586;2022-08-21T05:26:41;97860.06;;;20.23;83.13
43155;BME280;34212;51.018;13.586;2022-08-21T05:31:47;97864.88;;;20.21;82.84
43155;BME280;34212;51.018;13.586;2022-08-21T05:36:48;97869.38;;;20.15;82.96
43155;BME280;34212;51.018;13.586;2022-08-21T05:41:50;97876.94;;;20.13;82.77
43155;BME280;34212;51.018;13.586;2022-08-21T05:46:51;97871.53;;;20.13;82.90
43155;BME280;34212;51.018;13.586;2022-08-21T05:51:53;97875.84;;;20.14;82.96
43155;BME280;34212;51.018;13.586;2022-08-21T05:56:56;97867.75;;;20.14;82.91
43155;BME280;34212;51.018;13.586;2022-08-21T06:01:58;97864.81;;;20.16;82.97
43155;BME280;34212;51.018;13.586;2022-08-21T06:07:06;97864.34;;;20.19;83.05
43155;BME280;34212;51.018;13.586;2022-08-21T06:12:08;97867.59;;;20.21;82.95
43155;BME280;34212;51.018;13.586;2022-08-21T06:17:10;97877.13;;;20.23;83.10
43155;BME280;34212;51.018;13.586;2022-08-21T06:22:12;97876.06;;;20.24;82.96
43155;BME280;34212;51.018;13.586;2022-08-21T06:27:13;97891.59;;;20.29;83.32
43155;BME280;34212;51.018;13.586;2022-08-21T06:32:16;97884.28;;;20.29;82.94
43155;BME280;34212;51.018;13.586;2022-08-21T06:37:17;97880.28;;;20.32;83.17
43155;BME280;34212;51.018;13.586;2022-08-21T06:42:19;97879.81;;;20.35;83.13
43155;BME280;34212;51.018;13.586;2022-08-21T06:47:20;97868.97;;;20.35;83.17
43155;BME280;34212;51.018;13.586;2022-08-21T06:52:21;97868.50;;;20.38;83.12
43155;BME280;34212;51.018;13.586;2022-08-21T06:57:23;97870.94;;;20.40;83.03
43155;BME280;34212;51.018;13.586;2022-08-21T07:02:24;97875.06;;;20.42;82.96
43155;BME280;34212;51.018;13.586;2022-08-21T07:07:25;97873.66;;;20.40;82.83
43155;BME280;34212;51.018;13.586;2022-08-21T07:12:27;97880.81;;;20.46;83.37
43155;BME280;34212;51.018;13.586;2022-08-21T07:17:28;97874.69;;;20.50;82.99
43155;BME280;34212;51.018;13.586;2022-08-21T07:22:30;97876.34;;;20.51;83.08
43155;BME280;34212;51.018;13.586;2022-08-21T07:27:31;97884.94;;;20.60;83.27
43155;BME280;34212;51.018;13.586;2022-08-21T07:32:33;97886.19;;;20.69;83.10
43155;BME280;34212;51.018;13.586;2022-08-21T07:37:34;97884.50;;;20.68;82.68
43155;BME280;34212;51.018;13.586;2022-08-21T07:42:39;97888.78;;;20.64;82.33
43155;BME280;34212;51.018;13.586;2022-08-21T07:47:41;97883.03;;;20.61;82.42
43155;BME280;34212;51.018;13.586;2022-08-21T07:52:43;97889.25;;;20.61;82.48
43155;BME280;34212;51.018;13.586;2022-08-21T07:57:45;97892.78;;;20.62;82.52
43155;BME280;34212;51.018;13.586;2022-08-21T08:02:47;97892.63;;;20.68;82.69
43155;BME280;34212;51.018;13.586;2022-08-21T08:07:51;97910.16;;;20.77;82.99
43155;BME280;34212;51.018;13.586;2022-08-21T08:12:52;97907.06;;;20.86;82.65
43155;BME280;34212;51.018;13.586;2022-08-21T08:17:55;97916.13;;;20.91;82.89
43155;BME280;34212;51.018;13.586;2022-08-21T08:22:58;97925.50;;;21.01;82.75
43155;BME280;34212;51.018;13.586;2022-08-21T08:28:00;97920.91;;;21.01;82.62
43155;BME280;34212;51.018;13.586;2022-08-21T08:33:02;97927.47;;;21.05;82.86
43155;BME280;34212;51.018;13.586;2022-08-21T08:38:03;97924.53;;;21.07;82.25
43155;BME280;34212;51.018;13.586;2022-08-21T08:43:05;97922.03;;;21.05;82.45
43155;BME280;34212;51.018;13.586;2022-08-21T08:48:08;97926.66;;;21.05;81.91
43155;BME280;34212;51.018;13.586;2022-08-21T08:53:15;97930.50;;;21.09;82.16
43155;BME280;34212;51.018;13.586;2022-08-21T08:58:23;97925.66;;;21.11;81.66
43155;BME280;34212;51.018;13.586;2022-08-21T09:03:26;97923.78;;;21.11;81.33
43155;BME280;34212;51.018;13.586;2022-08-21T09:13:55;97933.31;;;21.14;81.33
43155;BME280;34212;51.018;13.586;2022-08-21T09:19:14;97919.19;;;21.29;81.89
43155;BME280;34212;51.018;13.586;2022-08-21T09:24:29;97918.22;;;21.35;80.56
43155;BME280;34212;51.018;13.586;2022-08-21T09:29:33;97911.25;;;21.39;79.43
43155;BME280;34212;51.018;13.586;2022-08-21T09:34:35;97909.69;;;21.43;79.18
43155;BME280;34212;51.018;13.586;2022-08-21T09:39:39;97911.50;;;21.54;80.04
43155;BME280;34212;51.018;13.586;2022-08-21T09:44:45;97908.06;;;21.59;79.17
43155;BME280;34212;51.018;13.586;2022-08-21T09:49:47;97907.69;;;21.55;77.59
43155;BME280;34212;51.018;13.586;2022-08-21T09:54:52;97904.50;;;21.58;78.44
43155;BME280;34212;51.018;13.586;2022-08-21T09:59:55;97900.22;;;21.62;77.46
43155;BME280;34212;51.018;13.586;2022-08-21T10:04:58;97899.25;;;21.68;77.44
43155;BME280;34212;51.018;13.586;2022-08-21T10:10:07;97902.19;;;21.67;77.28
43155;BME280;34212;51.018;13.586;2022-08-21T10:20:20;97898.06;;;21.81;77.86
43155;BME280;34212;51.018;13.586;2022-08-21T10:31:02;97903.88;;;21.90;77.53
43155;BME280;34212;51.018;13.586;2022-08-21T10:36:12;97917.63;;;22.05;78.55
43155;BME280;34212;51.018;13.586;2022-08-21T10:41:24;97910.81;;;22.20;77.62
43155;BME280;34212;51.018;13.586;2022-08-21T10:46:36;97917.38;;;22.24;76.64
43155;BME280;34212;51.018;13.586;2022-08-21T10:57:00;97903.34;;;22.32;76.81
43155;BME280;34212;51.018;13.586;2022-08-21T11:02:09;97903.44;;;22.37;75.59
43155;BME280;34212;51.018;13.586;2022-08-21T11:07:21;97902.16;;;22.45;75.80
43155;BME280;34212;51.018;13.586;2022-08-21T11:12:31;97902.75;;;22.52;76.30
43155;BME280;34212;51.018;13.586;2022-08-21T11:18:38;97906.88;;;22.54;75.13
43155;BME280;34212;51.018;13.586;2022-08-21T11:23:10;97907.69;;;22.55;75.05
43155;BME280;34212;51.018;13.586;2022-08-21T11:28:15;97904.22;;;22.59;75.05
43155;BME280;34212;51.018;13.586;2022-08-21T11:48:51;97896.63;;;22.89;74.15
43155;BME280;34212;51.018;13.586;2022-08-21T11:59:19;97885.34;;;23.02;73.81
43155;BME280;34212;51.018;13.586;2022-08-21T12:04:24;97894.16;;;23.09;73.23
43155;BME280;34212;51.018;13.586;2022-08-21T12:09:32;97889.75;;;23.08;71.89
43155;BME280;34212;51.018;13.586;2022-08-21T12:14:47;97895.22;;;23.08;72.71
43155;BME280;34212;51.018;13.586;2022-08-21T12:19:59;97891.06;;;23.00;71.99
43155;BME280;34212;51.018;13.586;2022-08-21T12:25:06;97893.78;;;23.00;72.08
43155;BME280;34212;51.018;13.586;2022-08-21T12:30:19;97889.97;;;22.96;70.21
43155;BME280;34212;51.018;13.586;2022-08-21T12:35:27;97892.16;;;22.99;70.19
43155;BME280;34212;51.018;13.586;2022-08-21T12:40:37;97896.81;;;23.04;70.69
43155;BME280;34212;51.018;13.586;2022-08-21T12:45:42;97890.09;;;23.12;69.65
43155;BME280;34212;51.018;13.586;2022-08-21T12:50:45;97890.19;;;23.22;69.15
43155;BME280;34212;51.018;13.586;2022-08-21T12:55:49;97882.13;;;23.37;69.76
43155;BME280;34212;51.018;13.586;2022-08-21T13:00:53;97883.63;;;23.55;70.52
43155;BME280;34212;51.018;13.586;2022-08-21T13:05:55;97880.41;;;23.63;69.68
43155;BME280;34212;51.018;13.586;2022-08-21T13:11:02;97877.47;;;23.70;69.24
43155;BME280;34212;51.018;13.586;2022-08-21T13:16:18;97879.16;;;23.76;68.08
43155;BME280;34212;51.018;13.586;2022-08-21T13:21:26;97869.38;;;23.80;68.03
43155;BME280;34212;51.018;13.586;2022-08-21T13:26:28;97871.59;;;23.88;67.65
43155;BME280;34212;51.018;13.586;2022-08-21T13:31:29;97864.31;;;24.04;66.13
43155;BME280;34212;51.018;13.586;2022-08-21T13:36:34;97864.06;;;24.11;65.67
43155;BME280;34212;51.018;13.586;2022-08-21T13:41:37;97870.41;;;24.22;65.87
43155;BME280;34212;51.018;13.586;2022-08-21T13:46:39;97864.63;;;24.13;66.11
43155;BME280;34212;51.018;13.586;2022-08-21T13:51:41;97867.03;;;24.04;67.01
43155;BME280;34212;51.018;13.586;2022-08-21T13:56:44;97877.84;;;23.89;66.72
43155;BME280;34212;51.018;13.586;2022-08-21T14:01:57;97877.00;;;23.78;66.44
43155;BME280;34212;51.018;13.586;2022-08-21T14:07:00;97875.56;;;23.70;67.19
43155;BME280;34212;51.018;13.586;2022-08-21T14:12:03;97877.97;;;23.62;67.58
43155;BME280;34212;51.018;13.586;2022-08-21T14:17:28;97876.28;;;23.56;67.50
43155;BME280;34212;51.018;13.586;2022-08-21T14:27:36;97864.25;;;23.51;66.67
43155;BME280;34212;51.018;13.586;2022-08-21T14:32:39;97859.91;;;23.50;68.42
43155;BME280;34212;51.018;13.586;2022-08-21T14:37:46;97863.72;;;23.49;68.28
43155;BME280;34212;51.018;13.586;2022-08-21T14:42:50;97860.72;;;23.51;69.21
43155;BME280;34212;51.018;13.586;2022-08-21T14:47:52;97856.94;;;23.57;70.74
43155;BME280;34212;51.018;13.586;2022-08-21T14:52:54;97855.56;;;23.55;70.49
43155;BME280;34212;51.018;13.586;2022-08-21T14:57:56;97863.50;;;23.56;71.64
43155;BME280;34212;51.018;13.586;2022-08-21T15:02:57;97865.06;;;23.47;71.05
43155;BME280;34212;51.018;13.586;2022-08-21T15:07:59;97861.75;;;23.40;71.45
43155;BME280;34212;51.018;13.586;2022-08-21T15:13:01;97866.34;;;23.34;72.38
43155;BME280;34212;51.018;13.586;2022-08-21T15:18:02;97865.19;;;23.30;72.93
43155;BME280;34212;51.018;13.586;2022-08-21T15:23:07;97862.16;;;23.21;73.67
43155;BME280;34212;51.018;13.586;2022-08-21T15:28:15;97858.00;;;23.14;74.17
43155;BME280;34212;51.018;13.586;2022-08-21T15:33:17;97852.03;;;23.12;74.68
43155;BME280;34212;51.018;13.586;2022-08-21T15:38:19;97854.16;;;23.10;74.29
43155;BME280;34212;51.018;13.586;2022-08-21T15:43:22;97857.69;;;23.10;74.88
43155;BME280;34212;51.018;13.586;2022-08-21T15:48:30;97863.13;;;23.10;75.23
43155;BME280;34212;51.018;13.586;2022-08-21T15:53:32;97860.13;;;23.07;75.45
43155;BME280;34212;51.018;13.586;2022-08-21T15:58:36;97851.16;;;23.06;76.06
43155;BME280;34212;51.018;13.586;2022-08-21T16:03:37;97857.09;;;23.03;75.79
43155;BME280;34212;51.018;13.586;2022-08-21T16:08:39;97843.22;;;22.99;76.41
43155;BME280;34212;51.018;13.586;2022-08-21T16:13:41;97839.97;;;23.02;76.75
43155;BME280;34212;51.018;13.586;2022-08-21T16:18:43;97842.69;;;23.02;76.73
43155;BME280;34212;51.018;13.586;2022-08-21T16:23:45;97844.31;;;23.03;76.70
43155;BME280;34212;51.018;13.586;2022-08-21T16:28:47;97852.72;;;23.02;76.50
43155;BME280;34212;51.018;13.586;2022-08-21T16:33:53;97850.78;;;22.97;76.64
43155;BME280;34212;51.018;13.586;2022-08-21T16:38:58;97838.78;;;22.93;76.90
43155;BME280;34212;51.018;13.586;2022-08-21T16:44:01;97850.16;;;22.90;77.28
43155;BME280;34212;51.018;13.586;2022-08-21T16:49:03;97848.31;;;22.96;77.55
43155;BME280;34212;51.018;13.586;2022-08-21T16:54:04;97840.22;;;23.01;77.56
43155;BME280;34212;51.018;13.586;2022-08-21T16:59:06;97840.22;;;23.76;77.42
43155;BME280;34212;51.018;13.586;2022-08-21T17:04:07;97839.22;;;24.80;76.58
43155;BME280;34212;51.018;13.586;2022-08-21T17:09:09;97834.34;;;25.03;77.93
43155;BME280;34212;51.018;13.586;2022-08-21T17:14:11;97835.44;;;25.02;79.11
43155;BME280;34212;51.018;13.586;2022-08-21T17:19:13;97826.66;;;24.69;79.50
43155;BME280;34212;51.018;13.586;2022-08-21T17:24:15;97823.84;;;24.33;79.94
43155;BME280;34212;51.018;13.586;2022-08-21T17:29:16;97836.25;;;24.04;79.71
43155;BME280;34212;51.018;13.586;2022-08-21T17:34:20;97839.16;;;23.82;80.16
43155;BME280;34212;51.018;13.586;2022-08-21T17:39:22;97843.91;;;23.64;80.02
43155;BME280;34212;51.018;13.586;2022-08-21T17:44:27;97851.19;;;23.48;80.20
43155;BME280;34212;51.018;13.586;2022-08-21T17:49:28;97853.78;;;23.33;79.77
43155;BME280;34212;51.018;13.586;2022-08-21T17:54:29;97839.78;;;23.14;79.84
43155;BME280;34212;51.018;13.586;2022-08-21T17:59:31;97845.34;;;22.97;79.44
43155;BME280;34212;51.018;13.586;2022-08-21T18:04:32;97848.41;;;22.79;79.38
43155;BME280;34212;51.018;13.586;2022-08-21T18:09:34;97841.72;;;22.59;79.24
43155;BME280;34212;51.018;13.586;2022-08-21T18:14:39;97855.66;;;22.41;78.92
43155;BME280;34212;51.018;13.586;2022-08-21T18:19:40;97853.84;;;22.25;78.90
43155;BME280;34212;51.018;13.586;2022-08-21T18:24:49;97847.63;;;22.07;78.64
43155;BME280;34212;51.018;13.586;2022-08-21T18:29:51;97858.06;;;21.94;78.69
43155;BME280;34212;51.018;13.586;2022-08-21T18:34:54;97867.38;;;21.81;78.66
43155;BME280;34212;51.018;13.586;2022-08-21T18:39:56;97865.81;;;21.68;78.55
43155;BME280;34212;51.018;13.586;2022-08-21T18:44:59;97859.44;;;21.57;78.58
43155;BME280;34212;51.018;13.586;2022-08-21T18:50:03;97868.50;;;21.46;78.44
43155;BME280;34212;51.018;13.586;2022-08-21T18:55:12;97874.72;;;21.30;78.09
43155;BME280;34212;51.018;13.586;2022-08-21T19:00:16;97884.28;;;21.15;77.91
43155;BME280;34212;51.018;13.586;2022-08-21T19:05:19;97884.56;;;21.02;77.84
43155;BME280;34212;51.018;13.586;2022-08-21T19:10:23;97878.66;;;20.88;77.90
43155;BME280;34212;51.018;13.586;2022-08-21T19:15:29;97879.53;;;20.77;77.66
43155;BME280;34212;51.018;13.586;2022-08-21T19:20:32;97882.06;;;20.67;77.55
43155;BME280;34212;51.018;13.586;2022-08-21T19:25:36;97884.25;;;20.53;77.50
43155;BME280;34212;51.018;13.586;2022-08-21T19:30:43;97876.94;;;20.42;77.62
43155;BME280;34212;51.018;13.586;2022-08-21T19:35:48;97880.50;;;20.30;77.75
43155;BME280;34212;51.018;13.586;2022-08-21T19:40:52;97883.50;;;20.17;77.26
43155;BME280;34212;51.018;13.586;2022-08-21T19:45:55;97887.06;;;20.06;77.09
43155;BME280;34212;51.018;13.586;2022-08-21T19:50:57;97888.72;;;19.95;77.19
43155;BME280;34212;51.018;13.586;2022-08-21T19:55:58;97883.34;;;19.83;76.97
43155;BME280;34212;51.018;13.586;2022-08-21T20:01:00;97888.53;;;19.73;76.97
43155;BME280;34212;51.018;13.586;2022-08-21T20:06:02;97882.66;;;19.65;77.33
43155;BME280;34212;51.018;13.586;2022-08-21T20:11:04;97875.91;;;19.55;77.32
43155;BME280;34212;51.018;13.586;2022-08-21T20:16:06;97870.88;;;19.47;77.08
43155;BME280;34212;51.018;13.586;2022-08-21T20:21:09;97870.41;;;19.38;77.09
43155;BME280;34212;51.018;13.586;2022-08-21T20:26:13;97866.41;;;19.29;77.07
43155;BME280;34212;51.018;13.586;2022-08-21T20:31:14;97868.41;;;19.22;76.95
43155;BME280;34212;51.018;13.586;2022-08-21T20:36:19;97873.06;;;19.15;77.10
43155;BME280;34212;51.018;13.586;2022-08-21T20:41:22;97871.31;;;19.09;77.08
43155;BME280;34212;51.018;13.586;2022-08-21T20:46:31;97870.59;;;19.02;77.24
43155;BME280;34212;51.018;13.586;2022-08-21T20:51:35;97864.00;;;18.98;77.15
43155;BME280;34212;51.018;13.586;2022-08-21T20:56:43;97862.25;;;18.91;77.39
43155;BME280;34212;51.018;13.586;2022-08-21T21:01:48;97862.09;;;18.86;77.05
43155;BME280;34212;51.018;13.586;2022-08-21T21:06:51;97862.22;;;18.80;77.02
43155;BME280;34212;51.018;13.586;2022-08-21T21:11:59;97858.53;;;18.74;77.15
43155;BME280;34212;51.018;13.586;2022-08-21T21:17:05;97868.13;;;18.70;77.15
43155;BME280;34212;51.018;13.586;2022-08-21T21:22:19;97862.84;;;18.63;77.10
43155;BME280;34212;51.018;13.586;2022-08-21T21:27:32;97865.19;;;18.60;77.30
43155;BME280;34212;51.018;13.586;2022-08-21T21:32:35;97862.09;;;18.56;77.23
43155;BME280;34212;51.018;13.586;2022-08-21T21:37:42;97863.41;;;18.54;77.23
43155;BME280;34212;51.018;13.586;2022-08-21T21:43:34;97864.31;;;18.48;77.29
43155;BME280;34212;51.018;13.586;2022-08-21T21:53:26;97865.53;;;18.33;77.08
43155;BME280;34212;51.018;13.586;2022-08-21T22:03:37;97866.53;;;18.20;77.23
43155;BME280;34212;51.018;13.586;2022-08-21T22:14:07;97870.22;;;18.08;77.09
43155;BME280;34212;51.018;13.586;2022-08-21T22:19:19;97870.69;;;18.05;77.25
43155;BME280;34212;51.018;13.586;2022-08-21T22:24:30;97859.88;;;18.05;77.35
43155;BME280;34212;51.018;13.586;2022-08-21T22:29:49;97861.16;;;18.02;77.18
43155;BME280;34212;51.018;13.586;2022-08-21T22:40:14;97864.53;;;17.97;77.47
43155;BME280;34212;51.018;13.586;2022-08-21T22:45:20;97865.81;;;17.95;77.43
43155;BME280;34212;51.018;13.586;2022-08-21T22:55:33;97864.84;;;17.89;77.49
43155;BME280;34212;51.018;13.586;2022-08-21T23:00:38;97871.94;;;17.84;77.44
43155;BME280;34212;51.018;13.586;2022-08-21T23:05:41;97859.34;;;17.77;77.30
43155;BME280;34212;51.018;13.586;2022-08-21T23:10:44;97862.72;;;17.73;77.02
43155;BME280;34212;51.018;13.586;2022-08-21T23:15:52;97860.91;;;17.67;77.13
43155;BME280;34212;51.018;13.586;2022-08-21T23:21:00;97859.94;;;17.61;77.13
43155;BME280;34212;51.018;13.586;2022-08-21T23:26:10;97867.66;;;17.58;77.23
